createdAt,value
2019-04-07T00:01:46.573Z,1.20
2019-04-07T00:04:16.975Z,1.40
2019-04-07T00:06:47.758Z,1.00
2019-04-07T00:09:17.772Z,2.00
2019-04-07T00:11:48.413Z,1.50
2019-04-07T00:14:18.508Z,1.30
2019-04-07T00:16:48.669Z,0.97
2019-04-07T00:19:18.707Z,1.30
2019-04-07T00:21:48.700Z,1.20
2019-04-07T00:24:19.282Z,1.30
2019-04-07T00:26:49.303Z,1.20
2019-04-07T00:29:19.546Z,1.40
2019-04-07T00:31:50.076Z,1.10
2019-04-07T00:34:20.569Z,1.40
2019-04-07T00:36:50.623Z,1.53
2019-04-07T00:39:20.835Z,1.40
2019-04-07T00:41:51.809Z,1.40
2019-04-07T00:44:22.447Z,1.50
2019-04-07T00:46:52.572Z,1.40
2019-04-07T00:49:23.218Z,1.60
2019-04-07T00:51:54.841Z,1.30
2019-04-07T00:54:25.462Z,1.27
2019-04-07T00:56:55.657Z,1.10
2019-04-07T00:59:25.747Z,1.40
2019-04-07T01:01:55.694Z,1.20
2019-04-07T01:04:25.659Z,1.20
2019-04-07T01:06:56.023Z,1.20
2019-04-07T01:09:26.230Z,1.10
2019-04-07T01:11:57.385Z,0.90
2019-04-07T01:14:27.798Z,1.00
2019-04-07T01:16:58.343Z,1.00
2019-04-07T01:19:28.875Z,1.10
2019-04-07T01:21:59.190Z,0.80
2019-04-07T01:24:29.875Z,0.80
2019-04-07T01:27:00.281Z,0.70
2019-04-07T01:29:30.794Z,0.80
2019-04-07T01:32:01.713Z,0.80
2019-04-07T01:34:31.875Z,0.70
2019-04-07T01:37:01.845Z,0.70
2019-04-07T01:39:32.231Z,0.80
2019-04-07T01:42:21.378Z,0.90
2019-04-07T01:45:16.992Z,0.70
2019-04-07T01:47:54.020Z,0.70
2019-04-07T01:50:42.048Z,0.70
2019-04-07T01:53:34.343Z,0.70
2019-04-07T01:56:27.271Z,0.70
2019-04-07T01:59:22.227Z,0.80
2019-04-07T02:01:59.402Z,0.90
2019-04-07T02:08:23.231Z,0.80
2019-04-07T02:14:39.315Z,0.80
2019-04-07T02:17:27.313Z,0.90
2019-04-07T02:20:22.130Z,0.97
2019-04-07T02:26:56.833Z,0.80
2019-04-07T02:29:36.733Z,0.60
2019-04-07T02:32:52.975Z,0.77
2019-04-07T02:35:31.966Z,0.70
2019-04-07T02:38:14.601Z,0.70
2019-04-07T02:41:08.723Z,0.80
2019-04-07T02:43:59.679Z,0.80
2019-04-07T02:46:48.027Z,0.80
2019-04-07T02:49:46.316Z,1.00
2019-04-07T02:52:47.590Z,0.97
2019-04-07T02:55:38.977Z,0.67
2019-04-07T02:58:13.809Z,0.77
2019-04-07T03:01:03.829Z,0.70
2019-04-07T03:04:05.245Z,0.70
2019-04-07T03:06:53.587Z,0.77
2019-04-07T03:09:41.962Z,0.60
2019-04-07T03:12:21.237Z,0.70
2019-04-07T03:15:06.800Z,0.67
2019-04-07T03:17:49.660Z,0.80
2019-04-07T03:20:41.579Z,0.77
2019-04-07T03:23:31.691Z,0.70
2019-04-07T03:26:20.496Z,0.70
2019-04-07T03:29:09.741Z,0.80
2019-04-07T03:32:02.921Z,0.70
2019-04-07T03:35:07.423Z,0.70
2019-04-07T03:37:59.650Z,0.80
2019-04-07T03:40:48.046Z,0.80
2019-04-07T03:43:35.977Z,0.70
2019-04-07T03:46:18.386Z,0.70
2019-04-07T03:49:11.231Z,0.80
2019-04-07T03:52:07.052Z,0.73
2019-04-07T03:54:57.110Z,0.70
2019-04-07T03:57:49.408Z,0.83
2019-04-07T04:01:16.857Z,0.70
2019-04-07T04:04:12.592Z,0.70
2019-04-07T04:07:25.672Z,0.70
2019-04-07T04:10:03.345Z,0.70
2019-04-07T04:13:05.255Z,0.90
2019-04-07T04:15:41.549Z,0.80
2019-04-07T04:18:11.963Z,0.60
2019-04-07T04:20:41.966Z,0.73
2019-04-07T04:23:12.681Z,0.80
2019-04-07T04:25:43.183Z,0.70
2019-04-07T04:28:14.265Z,0.60
2019-04-07T04:30:44.332Z,0.60
2019-04-07T04:33:14.341Z,0.80
2019-04-07T04:35:44.317Z,0.70
2019-04-07T04:38:14.468Z,0.70
2019-04-07T04:40:44.449Z,0.80
2019-04-07T04:43:14.440Z,0.70
2019-04-07T04:45:44.882Z,0.67
2019-04-07T04:48:15.523Z,0.73
2019-04-07T04:50:45.951Z,0.70
2019-04-07T04:53:15.920Z,0.80
2019-04-07T04:55:47.097Z,0.80
2019-04-07T04:58:17.516Z,0.87
2019-04-07T05:00:48.458Z,0.80
2019-04-07T05:03:19.407Z,0.80
2019-04-07T05:05:49.635Z,0.80
2019-04-07T05:08:20.491Z,0.90
2019-04-07T05:10:50.973Z,0.60
2019-04-07T05:13:21.415Z,0.90
2019-04-07T05:15:51.489Z,0.80
2019-04-07T05:18:22.130Z,0.80
2019-04-07T05:20:53.136Z,0.80
2019-04-07T05:23:23.152Z,0.70
2019-04-07T05:25:53.157Z,0.70
2019-04-07T05:28:23.154Z,0.80
2019-04-07T05:30:53.416Z,0.90
2019-04-07T05:33:23.364Z,0.80
2019-04-07T05:35:53.405Z,1.00
2019-04-07T05:38:24.009Z,0.80
2019-04-07T05:40:54.342Z,0.80
2019-04-07T05:43:25.046Z,0.70
2019-04-07T05:45:55.505Z,0.70
2019-04-07T05:48:25.788Z,0.90
2019-04-07T05:50:59.006Z,1.00
2019-04-07T05:53:27.808Z,0.90
2019-04-07T05:55:57.985Z,0.90
2019-04-07T05:58:28.122Z,1.00
2019-04-07T06:00:58.686Z,0.90
2019-04-07T06:03:29.070Z,0.90
2019-04-07T06:05:59.392Z,1.50
2019-04-07T06:08:35.997Z,1.90
2019-04-07T06:11:02.292Z,1.80
2019-04-07T06:13:33.155Z,0.93
2019-04-07T06:16:03.161Z,0.90
2019-04-07T06:18:34.221Z,0.87
2019-04-07T06:21:04.827Z,0.90
2019-04-07T06:23:35.441Z,0.90
2019-04-07T06:26:09.287Z,0.80
2019-04-07T06:28:38.189Z,1.00
2019-04-07T06:31:09.281Z,1.17
2019-04-07T06:33:39.410Z,1.00
2019-04-07T06:36:10.357Z,0.90
2019-04-07T06:38:43.243Z,0.87
2019-04-07T06:41:12.649Z,0.90
2019-04-07T06:43:42.887Z,1.00
2019-04-07T06:46:22.631Z,1.00
2019-04-07T06:49:29.640Z,0.80
2019-04-07T06:52:34.593Z,0.90
2019-04-07T06:55:32.966Z,1.10
2019-04-07T06:58:22.082Z,1.77
2019-04-07T07:01:29.664Z,1.60
2019-04-07T07:04:17.958Z,1.00
2019-04-07T07:06:55.965Z,1.20
2019-04-07T07:09:44.124Z,1.00
2019-04-07T07:12:38.749Z,0.97
2019-04-07T07:15:26.705Z,0.90
2019-04-07T07:18:08.944Z,0.90
2019-04-07T07:20:55.706Z,1.40
2019-04-07T07:23:32.137Z,2.40
2019-04-07T07:26:03.280Z,1.00
2019-04-07T07:28:34.757Z,0.80
2019-04-07T07:31:06.131Z,0.90
2019-04-07T07:33:46.081Z,0.97
2019-04-07T07:36:19.159Z,0.90
2019-04-07T07:38:57.476Z,0.90
2019-04-07T07:41:34.592Z,1.00
2019-04-07T07:44:09.773Z,1.07
2019-04-07T07:46:51.814Z,1.00
2019-04-07T07:49:22.029Z,1.00
2019-04-07T07:51:52.742Z,1.10
2019-04-07T07:54:27.836Z,0.93
2019-04-07T07:56:58.073Z,0.90
2019-04-07T07:59:35.665Z,1.13
2019-04-07T08:02:03.423Z,1.03
2019-04-07T08:04:34.584Z,0.97
2019-04-07T08:07:05.490Z,1.13
2019-04-07T08:09:35.555Z,1.30
2019-04-07T08:12:09.599Z,1.10
2019-04-07T08:14:40.389Z,1.17
2019-04-07T08:17:13.806Z,1.10
2019-04-07T08:19:48.176Z,1.13
2019-04-07T08:22:27.557Z,1.40
2019-04-07T08:24:53.488Z,1.40
2019-04-07T08:27:24.511Z,1.60
2019-04-07T08:29:54.615Z,1.30
2019-04-07T08:32:28.042Z,1.33
2019-04-07T08:34:57.003Z,1.80
2019-04-07T08:37:27.300Z,1.60
2019-04-07T08:40:04.291Z,1.70
2019-04-07T08:42:34.292Z,2.10
2019-04-07T08:45:05.770Z,1.50
2019-04-07T08:47:41.313Z,1.40
2019-04-07T08:50:12.543Z,1.87
2019-04-07T08:52:43.922Z,2.27
2019-04-07T08:55:15.037Z,2.03
2019-04-07T08:57:45.740Z,1.90
2019-04-07T09:00:23.140Z,1.60
2019-04-07T09:03:15.980Z,2.00
2019-04-07T09:05:47.829Z,2.40
2019-04-07T09:08:19.156Z,2.07
2019-04-07T09:10:56.689Z,2.50
2019-04-07T09:13:27.695Z,2.67
2019-04-07T09:16:15.108Z,2.50
2019-04-07T09:19:03.734Z,2.50
2019-04-07T09:21:52.873Z,2.60
2019-04-07T09:24:57.840Z,2.47
2019-04-07T09:27:35.410Z,2.13
2019-04-07T09:30:43.808Z,2.37
2019-04-07T09:33:34.651Z,2.40
2019-04-07T09:36:35.257Z,2.00
2019-04-07T09:39:34.533Z,1.93
2019-04-07T09:42:18.896Z,2.17
2019-04-07T09:45:11.910Z,2.30
2019-04-07T09:47:59.988Z,2.27
2019-04-07T09:50:48.628Z,2.37
2019-04-07T09:53:28.550Z,2.40
2019-04-07T09:56:16.234Z,2.27
2019-04-07T09:59:04.016Z,2.50
2019-04-07T10:01:51.919Z,2.40
2019-04-07T10:04:44.586Z,1.73
2019-04-07T10:07:25.085Z,2.20
2019-04-07T10:10:23.699Z,2.00
2019-04-07T10:13:04.434Z,2.10
2019-04-07T10:15:51.570Z,1.90
2019-04-07T10:18:44.697Z,2.23
2019-04-07T10:21:46.423Z,1.87
2019-04-07T10:24:47.169Z,1.80
2019-04-07T10:27:46.438Z,1.60
2019-04-07T10:30:34.927Z,1.93
2019-04-07T10:33:17.958Z,1.90
2019-04-07T10:36:09.841Z,2.00
2019-04-07T10:39:09.214Z,2.00
2019-04-07T10:41:55.363Z,1.80
2019-04-07T10:44:44.394Z,1.80
2019-04-07T10:51:06.720Z,1.50
2019-04-07T10:54:12.509Z,1.57
2019-04-07T10:57:01.077Z,1.60
2019-04-07T11:00:01.294Z,1.77
2019-04-07T11:02:52.796Z,2.20
2019-04-07T11:05:50.393Z,1.43
2019-04-07T11:08:40.057Z,1.93
2019-04-07T11:11:45.621Z,1.60
2019-04-07T11:14:45.473Z,1.57
2019-04-07T11:17:43.860Z,1.70
2019-04-07T11:20:36.267Z,1.60
2019-04-07T11:23:22.964Z,1.90
2019-04-07T11:26:03.603Z,2.00
2019-04-07T11:28:44.583Z,2.80
2019-04-07T11:31:45.432Z,3.37
2019-04-07T11:34:31.465Z,2.10
2019-04-07T11:37:29.256Z,2.47
2019-04-07T11:40:18.224Z,3.03
2019-04-07T11:43:10.706Z,4.10
2019-04-07T11:46:09.148Z,3.60
2019-04-07T11:49:10.175Z,2.90
2019-04-07T11:51:46.752Z,2.80
2019-04-07T11:54:49.156Z,3.10
2019-04-07T11:57:41.197Z,2.90
2019-04-07T12:00:29.287Z,3.37
2019-04-07T12:03:19.199Z,2.80
2019-04-07T12:06:08.592Z,3.33
2019-04-07T12:08:47.870Z,3.20
2019-04-07T12:11:35.284Z,2.83
2019-04-07T12:14:30.829Z,3.70
2019-04-07T12:17:19.957Z,3.53
2019-04-07T12:20:08.531Z,19.70
2019-04-07T12:22:56.864Z,8.63
2019-04-07T12:25:41.683Z,13.10
2019-04-07T12:28:42.921Z,3.67
2019-04-07T12:31:26.922Z,4.90
2019-04-07T12:34:23.446Z,5.83
2019-04-07T12:37:21.965Z,4.10
2019-04-07T12:40:23.890Z,3.80
2019-04-07T12:43:13.981Z,4.03
2019-04-07T12:46:13.039Z,3.53
2019-04-07T12:49:06.784Z,3.60
2019-04-07T12:52:07.532Z,2.90
2019-04-07T12:54:54.678Z,4.50
2019-04-07T12:57:39.533Z,7.47
2019-04-07T13:00:52.368Z,6.10
2019-04-07T13:03:28.942Z,10.63
2019-04-07T13:06:24.157Z,7.30
2019-04-07T13:09:15.029Z,6.30
2019-04-07T13:12:03.064Z,4.30
2019-04-07T13:14:58.950Z,3.57
2019-04-07T13:18:07.724Z,4.87
2019-04-07T13:21:03.306Z,3.67
2019-04-07T13:23:43.965Z,3.80
2019-04-07T13:26:36.616Z,3.40
2019-04-07T13:29:30.317Z,3.30
2019-04-07T13:32:39.556Z,4.20
2019-04-07T13:35:26.074Z,3.03
2019-04-07T13:38:16.594Z,3.33
2019-04-07T13:40:57.668Z,4.40
2019-04-07T13:43:46.014Z,4.20
2019-04-07T13:46:36.119Z,4.23
2019-04-07T13:49:32.996Z,5.40
2019-04-07T13:52:23.100Z,6.27
2019-04-07T13:55:17.131Z,5.20
2019-04-07T13:58:08.160Z,4.90
2019-04-07T14:00:53.197Z,4.60
2019-04-07T14:03:57.099Z,4.30
2019-04-07T14:06:33.925Z,4.90
2019-04-07T14:09:18.000Z,5.50
2019-04-07T14:12:11.645Z,5.37
2019-04-07T14:15:05.217Z,6.13
2019-04-07T14:18:03.605Z,4.63
2019-04-07T14:20:45.191Z,5.80
2019-04-07T14:23:41.010Z,5.30
2019-04-07T14:26:48.864Z,4.73
2019-04-07T14:29:44.900Z,4.90
2019-04-07T14:32:34.354Z,5.03
2019-04-07T14:35:36.984Z,4.33
2019-04-07T14:38:30.108Z,4.67
2019-04-07T14:41:23.068Z,4.10
2019-04-07T14:44:24.718Z,5.60
2019-04-07T14:47:16.208Z,5.37
2019-04-07T14:50:03.774Z,4.53
2019-04-07T14:52:57.860Z,4.27
2019-04-07T14:56:05.531Z,4.30
2019-04-07T14:59:11.628Z,3.90
2019-04-07T15:02:00.548Z,5.13
2019-04-07T15:04:40.800Z,4.70
2019-04-07T15:10:41.913Z,4.70
2019-04-07T15:13:25.772Z,4.20
2019-04-07T15:15:54.624Z,3.30
2019-04-07T15:18:24.656Z,3.23
2019-04-07T15:24:22.751Z,2.70
2019-04-07T15:26:53.077Z,3.63
2019-04-07T15:29:25.310Z,3.90
2019-04-07T15:31:55.368Z,2.60
2019-04-07T15:34:26.306Z,3.80
2019-04-07T15:36:56.867Z,4.23
2019-04-07T15:39:29.617Z,4.50
2019-04-07T15:41:59.825Z,3.93
2019-04-07T15:44:29.892Z,4.20
2019-04-07T15:46:59.921Z,5.60
2019-04-07T15:49:30.987Z,3.17
2019-04-07T15:52:01.557Z,3.53
2019-04-07T15:54:32.670Z,3.40
2019-04-07T15:57:03.693Z,3.60
2019-04-07T15:59:37.885Z,4.07
2019-04-07T16:02:10.073Z,3.87
2019-04-07T16:04:39.609Z,4.20
2019-04-07T16:07:12.002Z,3.73
2019-04-07T16:10:02.585Z,4.13
2019-04-07T16:12:43.455Z,4.40
2019-04-07T16:15:07.699Z,5.20
2019-04-07T16:17:38.836Z,5.23
2019-04-07T16:20:24.540Z,6.03
2019-04-07T16:22:52.522Z,4.20
2019-04-07T16:25:27.596Z,5.70
2019-04-07T16:27:56.547Z,5.77
2019-04-07T16:30:26.680Z,4.03
2019-04-07T16:33:00.572Z,4.63
2019-04-07T16:35:29.813Z,5.57
2019-04-07T16:38:01.379Z,4.20
2019-04-07T16:40:35.012Z,4.33
2019-04-07T16:43:13.138Z,5.30
2019-04-07T16:45:37.157Z,5.70
2019-04-07T16:48:07.825Z,5.00
2019-04-07T16:50:39.863Z,5.50
2019-04-07T16:53:10.661Z,4.63
2019-04-07T16:55:46.685Z,5.23
2019-04-07T16:58:18.633Z,4.03
2019-04-07T17:00:49.855Z,4.87
2019-04-07T17:03:20.588Z,4.07
2019-04-07T17:05:55.691Z,5.43
2019-04-07T17:08:24.682Z,3.97
2019-04-07T17:10:54.479Z,4.30
2019-04-07T17:13:33.909Z,4.77
2019-04-07T17:15:57.142Z,4.03
2019-04-07T17:18:56.179Z,4.10
2019-04-07T17:21:27.658Z,2.87
2019-04-07T17:23:58.137Z,4.23
2019-04-07T17:26:28.341Z,2.60
2019-04-07T17:28:59.472Z,3.60
2019-04-07T17:31:32.218Z,4.43
2019-04-07T17:34:03.940Z,4.33
2019-04-07T17:36:34.343Z,3.93
2019-04-07T17:39:24.578Z,4.20
2019-04-07T17:41:57.313Z,3.87
2019-04-07T17:44:52.576Z,4.30
2019-04-07T17:47:41.502Z,3.57
2019-04-07T17:50:31.588Z,3.77
2019-04-07T17:53:19.312Z,4.60
2019-04-07T17:56:01.399Z,5.33
2019-04-07T17:58:57.142Z,7.20
2019-04-07T18:02:02.384Z,4.63
2019-04-07T18:04:57.083Z,4.73
2019-04-07T18:07:47.874Z,5.33
2019-04-07T18:10:47.009Z,5.40
2019-04-07T18:13:51.712Z,5.37
2019-04-07T18:16:41.818Z,5.30
2019-04-07T18:19:34.798Z,4.17
2019-04-07T18:22:28.632Z,5.17
2019-04-07T18:25:19.393Z,4.47
2019-04-07T18:28:07.418Z,5.00
2019-04-07T18:30:56.217Z,4.87
2019-04-07T18:33:50.067Z,4.67
2019-04-07T18:36:37.985Z,4.70
2019-04-07T18:39:37.102Z,4.87
2019-04-07T18:42:20.919Z,3.63
2019-04-07T18:45:12.514Z,4.67
2019-04-07T18:47:52.305Z,3.87
2019-04-07T18:51:00.954Z,3.93
2019-04-07T18:53:53.216Z,4.13
2019-04-07T19:00:42.325Z,4.17
2019-04-07T19:03:26.486Z,3.63
2019-04-07T19:06:20.619Z,3.77
2019-04-07T19:09:16.678Z,3.20
2019-04-07T19:12:10.441Z,3.30
2019-04-07T19:14:55.967Z,3.50
2019-04-07T19:17:41.994Z,3.13
2019-04-07T19:20:46.863Z,3.73
2019-04-07T19:23:58.515Z,3.40
2019-04-07T19:26:57.562Z,3.00
2019-04-07T19:29:57.374Z,2.77
2019-04-07T19:32:47.163Z,3.70
2019-04-07T19:35:45.127Z,3.70
2019-04-07T19:38:43.426Z,3.17
2019-04-07T19:41:35.639Z,3.57
2019-04-07T19:44:37.198Z,3.30
2019-04-07T19:47:16.925Z,2.50
2019-04-07T19:50:21.443Z,3.10
2019-04-07T19:53:05.004Z,2.67
2019-04-07T19:55:56.242Z,2.40
2019-04-07T19:58:38.642Z,3.33
2019-04-07T20:01:29.071Z,2.50
2019-04-07T20:04:14.197Z,2.60
2019-04-07T20:07:03.416Z,2.33
2019-04-07T20:09:55.468Z,2.27
2019-04-07T20:12:45.422Z,2.40
2019-04-07T20:15:41.733Z,2.10
2019-04-07T20:18:26.953Z,2.90
2019-04-07T20:21:37.419Z,3.00
2019-04-07T20:24:21.786Z,2.70
2019-04-07T20:27:08.644Z,2.70
2019-04-07T20:29:56.216Z,2.67
2019-04-07T20:32:47.397Z,2.73
2019-04-07T20:35:37.220Z,3.13
2019-04-07T20:38:28.413Z,2.80
2019-04-07T20:41:17.035Z,3.37
2019-04-07T20:44:05.638Z,3.80
2019-04-07T20:46:57.968Z,3.43
2019-04-07T20:49:44.790Z,3.57
2019-04-07T20:52:24.705Z,3.70
2019-04-07T20:55:13.452Z,4.37
2019-04-07T20:58:22.134Z,4.20
2019-04-07T21:01:27.605Z,4.43
2019-04-07T21:04:32.025Z,4.70
2019-04-07T21:07:20.420Z,5.27
2019-04-07T21:10:04.522Z,5.27
2019-04-07T21:12:54.807Z,5.20
2019-04-07T21:15:34.055Z,5.30
2019-04-07T21:18:23.543Z,5.23
2019-04-07T21:21:12.282Z,4.47
2019-04-07T21:24:05.697Z,5.30
2019-04-07T21:26:48.023Z,5.03
2019-04-07T21:29:26.087Z,4.50
2019-04-07T21:32:09.980Z,4.60
2019-04-07T21:35:03.039Z,4.40
2019-04-07T21:37:55.146Z,5.50
2019-04-07T21:40:39.551Z,4.30
2019-04-07T21:43:41.398Z,4.60
2019-04-07T21:46:33.345Z,4.40
2019-04-07T21:49:10.714Z,3.77
2019-04-07T21:51:58.963Z,3.90
2019-04-07T21:54:48.925Z,4.40
2019-04-07T21:57:38.221Z,4.43
2019-04-07T22:00:27.087Z,4.57
2019-04-07T22:03:22.034Z,4.73
2019-04-07T22:06:10.977Z,3.87
2019-04-07T22:08:47.775Z,4.10
2019-04-07T22:11:17.777Z,4.33
2019-04-07T22:13:50.148Z,4.07
2019-04-07T22:16:33.864Z,4.50
2019-04-07T22:19:06.689Z,5.00
2019-04-07T22:21:38.804Z,4.30
2019-04-07T22:24:11.101Z,4.30
2019-04-07T22:26:49.217Z,4.27
2019-04-07T22:29:16.284Z,3.67
2019-04-07T22:31:50.234Z,4.07
2019-04-07T22:34:20.888Z,3.80
2019-04-07T22:36:51.885Z,3.60
2019-04-07T22:39:27.212Z,4.10
2019-04-07T22:41:58.270Z,4.30
2019-04-07T22:44:29.418Z,4.10
2019-04-07T22:46:59.560Z,4.90
2019-04-07T22:49:31.907Z,4.57
2019-04-07T22:52:01.859Z,4.00
2019-04-07T22:54:33.681Z,4.33
2019-04-07T22:57:06.129Z,3.70
2019-04-07T22:59:36.701Z,4.60
2019-04-07T23:02:07.382Z,4.70
2019-04-07T23:04:38.581Z,4.43
2019-04-07T23:07:08.959Z,4.67
2019-04-07T23:09:41.797Z,4.17
2019-04-07T23:12:13.556Z,4.00
2019-04-07T23:14:44.857Z,5.17
2019-04-07T23:17:16.015Z,4.17
2019-04-07T23:19:46.262Z,4.10
2019-04-07T23:22:16.255Z,3.93
2019-04-07T23:24:47.429Z,4.23
2019-04-07T23:27:18.672Z,4.47
2019-04-07T23:29:48.698Z,4.07
2019-04-07T23:32:19.613Z,4.17
2019-04-07T23:34:52.034Z,3.87
2019-04-07T23:37:24.677Z,3.90
2019-04-07T23:39:54.678Z,4.10
2019-04-07T23:42:25.118Z,4.60
2019-04-07T23:44:55.218Z,4.23
2019-04-07T23:47:25.537Z,4.47
2019-04-07T23:49:55.681Z,4.80
2019-04-07T23:52:27.187Z,4.43
2019-04-07T23:54:57.637Z,4.20
2019-04-07T23:57:28.165Z,4.40
